createdAt,value
2019-06-27T00:02:09.907Z,21.90
2019-06-27T00:04:39.250Z,21.70
2019-06-27T00:07:11.218Z,21.70
2019-06-27T00:09:40.487Z,21.50
2019-06-27T00:12:11.860Z,21.40
2019-06-27T00:14:43.272Z,21.30
2019-06-27T00:17:12.817Z,21.30
2019-06-27T00:19:44.302Z,21.20
2019-06-27T00:22:18.243Z,21.20
2019-06-27T00:24:47.263Z,21.20
2019-06-27T00:27:18.853Z,21.10
2019-06-27T00:29:54.168Z,21.00
2019-06-27T00:32:23.321Z,20.90
2019-06-27T00:34:53.846Z,20.80
2019-06-27T00:37:29.454Z,20.70
2019-06-27T00:39:58.582Z,20.70
2019-06-27T00:42:27.682Z,20.70
2019-06-27T00:44:59.615Z,20.60
2019-06-27T00:47:28.680Z,20.50
2019-06-27T00:50:01.295Z,20.40
2019-06-27T00:52:30.464Z,20.30
2019-06-27T00:54:59.686Z,20.20
2019-06-27T00:57:32.731Z,20.10
2019-06-27T01:00:06.965Z,20.00
2019-06-27T01:02:39.773Z,19.90
2019-06-27T01:05:08.882Z,20.00
2019-06-27T01:07:37.991Z,19.90
2019-06-27T01:10:13.270Z,19.90
2019-06-27T01:12:42.489Z,19.70
2019-06-27T01:15:11.996Z,19.80
2019-06-27T01:17:44.184Z,19.80
2019-06-27T01:20:13.470Z,19.70
2019-06-27T01:22:46.664Z,19.80
2019-06-27T01:25:19.995Z,19.80
2019-06-27T01:27:52.693Z,19.70
2019-06-27T01:30:22.961Z,19.70
2019-06-27T01:32:52.037Z,19.60
2019-06-27T01:35:25.166Z,19.50
2019-06-27T01:37:57.907Z,19.60
2019-06-27T01:40:34.602Z,19.30
2019-06-27T01:43:07.072Z,19.10
2019-06-27T01:45:46.252Z,19.10
2019-06-27T01:48:15.582Z,19.00
2019-06-27T01:50:55.336Z,19.00
2019-06-27T01:53:24.520Z,19.20
2019-06-27T01:55:53.654Z,19.10
2019-06-27T01:58:22.988Z,19.10
2019-06-27T02:00:54.612Z,19.00
2019-06-27T02:03:23.794Z,18.90
2019-06-27T02:05:53.513Z,18.80
2019-06-27T02:08:23.254Z,18.80
2019-06-27T02:10:56.676Z,18.80
2019-06-27T02:13:33.623Z,18.80
2019-06-27T02:16:11.864Z,18.60
2019-06-27T02:18:42.772Z,18.60
2019-06-27T02:21:23.430Z,18.60
2019-06-27T02:23:57.650Z,18.50
2019-06-27T02:26:30.300Z,18.50
2019-06-27T02:29:09.714Z,18.50
2019-06-27T02:31:48.263Z,18.50
2019-06-27T02:34:18.005Z,18.60
2019-06-27T02:36:49.937Z,18.60
2019-06-27T02:39:26.311Z,18.50
2019-06-27T02:42:01.194Z,18.50
2019-06-27T02:44:35.021Z,18.50
2019-06-27T02:47:04.101Z,18.50
2019-06-27T02:49:33.522Z,18.50
2019-06-27T02:52:02.603Z,18.50
2019-06-27T02:54:37.932Z,18.50
2019-06-27T02:57:07.855Z,18.30
2019-06-27T02:59:43.808Z,18.20
2019-06-27T03:02:12.820Z,18.30
2019-06-27T03:04:51.786Z,18.40
2019-06-27T03:07:22.293Z,18.20
2019-06-27T03:09:51.841Z,18.20
2019-06-27T03:12:21.849Z,18.10
2019-06-27T03:14:53.947Z,18.10
2019-06-27T03:17:29.001Z,18.10
2019-06-27T03:19:59.958Z,18.30
2019-06-27T03:22:29.894Z,18.40
2019-06-27T03:25:04.294Z,18.30
2019-06-27T03:27:43.078Z,18.30
2019-06-27T03:30:14.033Z,18.10
2019-06-27T03:32:50.753Z,17.90
2019-06-27T03:35:23.622Z,18.00
2019-06-27T03:38:00.539Z,18.00
2019-06-27T03:40:33.193Z,17.90
2019-06-27T03:43:05.726Z,17.90
2019-06-27T03:45:36.573Z,17.90
2019-06-27T03:48:12.386Z,17.80
2019-06-27T03:50:44.654Z,17.60
2019-06-27T03:53:22.569Z,17.50
2019-06-27T03:55:56.307Z,17.40
2019-06-27T03:58:32.010Z,17.20
2019-06-27T04:01:14.477Z,17.20
2019-06-27T04:03:54.073Z,17.40
2019-06-27T04:06:28.136Z,17.20
2019-06-27T04:09:06.947Z,17.10
2019-06-27T04:11:36.754Z,17.10
2019-06-27T04:14:06.189Z,17.10
2019-06-27T04:16:39.584Z,17.40
2019-06-27T04:19:16.524Z,17.60
2019-06-27T04:21:48.629Z,17.40
2019-06-27T04:24:25.588Z,17.30
2019-06-27T04:26:55.006Z,17.20
2019-06-27T04:29:33.433Z,17.30
2019-06-27T04:31:58.955Z,17.50
2019-06-27T04:34:28.835Z,17.60
2019-06-27T04:36:59.395Z,17.60
2019-06-27T04:39:28.597Z,17.60
2019-06-27T04:42:02.347Z,17.70
2019-06-27T04:44:32.329Z,17.60
2019-06-27T04:47:04.098Z,17.60
2019-06-27T04:49:36.623Z,17.70
2019-06-27T04:52:16.655Z,17.60
2019-06-27T04:57:43.705Z,17.80
2019-06-27T05:00:18.843Z,17.90
2019-06-27T05:02:48.355Z,18.00
2019-06-27T05:05:26.156Z,18.10
2019-06-27T05:07:57.236Z,18.10
2019-06-27T05:10:30.572Z,18.10
2019-06-27T05:15:55.827Z,18.30
2019-06-27T05:18:25.173Z,18.70
2019-06-27T05:20:57.988Z,18.40
2019-06-27T05:23:27.359Z,18.50
2019-06-27T05:25:57.882Z,18.10
2019-06-27T05:28:28.026Z,18.00
2019-06-27T05:31:05.447Z,18.10
2019-06-27T05:33:37.887Z,18.40
2019-06-27T05:36:14.372Z,19.00
2019-06-27T05:38:48.804Z,19.70
2019-06-27T05:41:18.195Z,21.30
2019-06-27T05:43:52.114Z,20.70
2019-06-27T05:46:21.793Z,21.00
2019-06-27T05:49:01.750Z,20.60
2019-06-27T05:51:42.617Z,20.40
2019-06-27T05:54:22.165Z,20.40
2019-06-27T05:57:00.322Z,20.70
2019-06-27T05:59:29.630Z,20.90
2019-06-27T06:01:59.668Z,21.70
2019-06-27T06:04:35.519Z,22.10
2019-06-27T06:07:05.443Z,21.10
2019-06-27T06:09:43.504Z,20.40
2019-06-27T06:12:13.156Z,20.60
2019-06-27T06:14:59.015Z,20.80
2019-06-27T06:17:29.255Z,21.20
2019-06-27T06:20:05.904Z,21.20
2019-06-27T06:23:03.829Z,21.20
2019-06-27T06:25:33.584Z,21.30
2019-06-27T06:28:06.741Z,21.80
2019-06-27T06:30:44.584Z,21.70
2019-06-27T06:33:12.288Z,21.90
2019-06-27T06:35:42.939Z,21.50
2019-06-27T06:38:13.677Z,22.00
2019-06-27T06:40:44.514Z,21.20
2019-06-27T06:43:18.090Z,21.30
2019-06-27T06:45:47.675Z,22.00
2019-06-27T06:48:17.055Z,21.80
2019-06-27T06:50:46.670Z,22.00
2019-06-27T06:53:25.587Z,22.60
2019-06-27T06:55:57.530Z,23.10
2019-06-27T06:58:32.059Z,23.20
2019-06-27T07:01:05.665Z,22.70
2019-06-27T07:03:35.179Z,23.30
2019-06-27T07:06:10.090Z,23.70
2019-06-27T07:08:50.473Z,23.90
2019-06-27T07:11:20.486Z,24.40
2019-06-27T07:13:50.439Z,24.30
2019-06-27T07:16:21.457Z,24.30
2019-06-27T07:18:51.889Z,24.00
2019-06-27T07:21:23.869Z,23.70
2019-06-27T07:23:53.363Z,23.30
2019-06-27T07:26:25.584Z,24.00
2019-06-27T07:28:55.212Z,24.80
2019-06-27T07:31:25.228Z,24.10
2019-06-27T07:33:58.160Z,23.70
2019-06-27T07:36:27.734Z,23.20
2019-06-27T07:38:57.527Z,24.00
2019-06-27T07:41:27.592Z,23.80
2019-06-27T07:44:05.272Z,23.10
2019-06-27T07:46:37.543Z,23.00
2019-06-27T07:49:08.499Z,23.50
2019-06-27T07:51:46.631Z,23.60
2019-06-27T11:23:35.341Z,28.70
2019-06-27T11:26:14.448Z,29.30
2019-06-27T11:28:43.482Z,30.50
2019-06-27T11:31:19.338Z,29.40
2019-06-27T11:33:49.936Z,28.60
2019-06-27T11:36:24.705Z,28.60
2019-06-27T11:38:53.776Z,28.60
2019-06-27T11:41:22.778Z,28.60
2019-06-27T11:43:51.781Z,28.60
2019-06-27T11:46:27.882Z,29.30
2019-06-27T11:49:07.480Z,29.70
2019-06-27T11:51:36.606Z,29.10
2019-06-27T11:54:05.843Z,29.10
2019-06-27T11:56:34.884Z,30.30
2019-06-27T11:59:14.516Z,30.20
2019-06-27T12:01:50.609Z,29.80
2019-06-27T12:04:45.706Z,29.90
2019-06-27T12:07:33.499Z,30.70
2019-06-27T12:10:08.132Z,30.40
2019-06-27T12:12:37.320Z,29.70
2019-06-27T12:15:06.604Z,30.10
2019-06-27T12:17:35.865Z,29.90
2019-06-27T12:20:11.131Z,30.50
2019-06-27T12:22:40.160Z,30.00
2019-06-27T12:25:09.695Z,29.90
2019-06-27T12:27:38.656Z,29.60
2019-06-27T12:30:11.307Z,29.50
2019-06-27T12:32:51.843Z,29.00
2019-06-27T12:35:09.925Z,29.30
2019-06-27T12:37:40.094Z,29.80
2019-06-27T12:40:08.725Z,29.30
2019-06-27T12:42:37.991Z,29.70
2019-06-27T12:45:07.092Z,29.80
2019-06-27T12:47:36.056Z,29.80
2019-06-27T12:50:05.544Z,30.40
2019-06-27T12:52:34.525Z,29.60
2019-06-27T12:55:05.718Z,29.10
2019-06-27T12:57:36.296Z,29.30
2019-06-27T13:00:08.537Z,29.10
2019-06-27T13:02:37.170Z,29.10
2019-06-27T13:05:06.488Z,29.80
2019-06-27T13:10:35.835Z,29.60
2019-06-27T13:13:10.847Z,28.80
2019-06-27T13:15:40.022Z,28.80
2019-06-27T13:18:09.061Z,28.80
2019-06-27T13:20:57.146Z,28.60
2019-06-27T13:23:14.628Z,28.80
2019-06-27T13:25:43.660Z,28.90
2019-06-27T13:28:17.537Z,29.10
2019-06-27T13:30:46.781Z,29.10
2019-06-27T13:33:15.950Z,28.90
2019-06-27T13:35:44.998Z,28.60
2019-06-27T13:38:15.263Z,28.30
2019-06-27T13:40:44.794Z,28.70
2019-06-27T13:43:13.861Z,28.70
2019-06-27T13:45:44.354Z,28.60
2019-06-27T13:48:18.517Z,28.70
2019-06-27T13:50:53.306Z,28.60
2019-06-27T13:53:22.299Z,28.70
2019-06-27T13:55:56.077Z,28.60
2019-06-27T13:58:25.175Z,28.60
2019-06-27T14:00:58.949Z,28.50
2019-06-27T14:03:48.158Z,28.00
2019-06-27T14:06:07.922Z,28.20
2019-06-27T14:08:36.935Z,28.20
2019-06-27T14:11:12.616Z,28.00
2019-06-27T14:13:41.827Z,28.00
2019-06-27T14:16:14.830Z,28.00
2019-06-27T14:18:44.818Z,27.90
2019-06-27T14:21:15.294Z,27.90
2019-06-27T14:23:44.336Z,28.10
2019-06-27T14:26:13.427Z,28.20
2019-06-27T14:28:42.498Z,27.90
2019-06-27T14:31:17.356Z,27.90
2019-06-27T14:33:46.364Z,28.00
2019-06-27T14:36:20.721Z,28.20
2019-06-27T14:38:49.708Z,28.10
2019-06-27T14:41:23.347Z,28.00
2019-06-27T14:43:55.811Z,28.20
2019-06-27T14:46:24.912Z,28.20
2019-06-27T14:48:58.105Z,28.20
2019-06-27T14:51:30.989Z,28.30
2019-06-27T14:54:00.011Z,28.40
2019-06-27T14:56:30.058Z,28.40
2019-06-27T14:59:08.270Z,28.20
2019-06-27T15:01:42.073Z,28.00
2019-06-27T15:04:18.586Z,28.20
2019-06-27T15:06:47.643Z,28.10
2019-06-27T15:09:16.678Z,28.10
2019-06-27T15:11:45.855Z,28.00
2019-06-27T15:14:14.818Z,28.10
2019-06-27T15:16:45.964Z,28.30
2019-06-27T15:21:51.300Z,28.00
2019-06-27T15:24:28.690Z,27.90
2019-06-27T15:26:59.751Z,28.10
2019-06-27T15:29:29.004Z,28.00
2019-06-27T15:32:04.814Z,27.90
2019-06-27T15:34:37.845Z,27.90
2019-06-27T15:37:08.152Z,27.70
2019-06-27T15:39:40.861Z,27.90
2019-06-27T15:42:11.340Z,27.90
2019-06-27T15:44:40.418Z,27.90
2019-06-27T15:47:15.291Z,28.10
2019-06-27T15:49:44.531Z,28.20
2019-06-27T15:52:13.765Z,28.00
2019-06-27T15:54:43.223Z,27.50
2019-06-27T15:57:18.648Z,27.50
2019-06-27T15:59:48.218Z,27.50
2019-06-27T16:02:17.298Z,27.30
2019-06-27T16:04:48.346Z,27.50
2019-06-27T16:07:22.195Z,27.60
2019-06-27T16:09:51.162Z,27.40
2019-06-27T16:12:21.938Z,27.40
2019-06-27T16:14:51.755Z,27.20
2019-06-27T16:17:22.750Z,27.20
2019-06-27T16:19:51.888Z,27.20
2019-06-27T16:22:24.833Z,27.30
2019-06-27T16:24:53.956Z,27.30
2019-06-27T16:27:23.007Z,27.30
2019-06-27T16:29:53.995Z,27.30
2019-06-27T16:32:27.496Z,27.20
2019-06-27T16:35:01.545Z,27.10
2019-06-27T16:37:35.504Z,27.00
2019-06-27T16:40:06.453Z,26.90
2019-06-27T16:42:35.595Z,26.90
2019-06-27T16:45:05.947Z,26.60
2019-06-27T16:47:37.832Z,26.40
2019-06-27T16:50:13.437Z,26.50
2019-06-27T16:52:43.137Z,26.50
2019-06-27T16:55:13.045Z,26.50
2019-06-27T16:57:50.177Z,26.50
2019-06-27T17:00:19.625Z,26.50
2019-06-27T17:02:53.465Z,26.40
2019-06-27T17:05:26.234Z,26.40
2019-06-27T17:07:57.560Z,26.20
2019-06-27T17:10:30.108Z,26.10
2019-06-27T17:12:59.185Z,26.00
2019-06-27T17:15:32.985Z,26.00
2019-06-27T17:18:11.379Z,25.90
2019-06-27T17:20:43.200Z,25.80
2019-06-27T17:23:12.221Z,25.60
2019-06-27T17:25:41.175Z,25.60
2019-06-27T17:28:14.580Z,25.70
2019-06-27T17:30:43.886Z,25.50
2019-06-27T17:33:12.911Z,25.40
2019-06-27T17:35:41.976Z,25.30
2019-06-27T17:38:12.789Z,25.20
2019-06-27T17:40:45.662Z,24.90
2019-06-27T17:43:14.765Z,25.00
2019-06-27T17:45:43.704Z,25.00
2019-06-27T17:48:12.726Z,25.00
2019-06-27T17:50:42.455Z,24.90
2019-06-27T17:53:11.571Z,24.90
2019-06-27T17:55:40.641Z,24.80
2019-06-27T17:58:14.192Z,24.80
2019-06-27T18:00:44.266Z,24.70
2019-06-27T18:03:13.370Z,24.60
2019-06-27T18:05:43.399Z,24.60
2019-06-27T18:08:12.405Z,24.50
2019-06-27T18:10:44.931Z,24.40
2019-06-27T18:13:24.011Z,24.40
2019-06-27T18:15:58.706Z,24.30
2019-06-27T18:18:27.647Z,24.20
2019-06-27T18:21:05.382Z,24.20
2019-06-27T18:23:34.392Z,23.90
2019-06-27T18:26:07.818Z,23.80
2019-06-27T18:28:36.915Z,23.80
2019-06-27T18:31:13.070Z,23.60
2019-06-27T18:33:42.087Z,23.50
2019-06-27T18:36:13.886Z,23.60
2019-06-27T18:38:42.898Z,23.30
2019-06-27T18:43:52.264Z,22.90
2019-06-27T18:46:22.224Z,22.90
2019-06-27T18:48:52.099Z,22.70
2019-06-27T18:51:21.359Z,22.80
2019-06-27T18:53:55.962Z,22.80
2019-06-27T18:56:30.337Z,22.80
2019-06-27T18:58:59.465Z,22.60
2019-06-27T19:01:30.934Z,22.40
2019-06-27T19:04:07.539Z,22.40
2019-06-27T19:06:37.392Z,22.30
2019-06-27T19:09:06.441Z,22.30
2019-06-27T19:11:37.067Z,22.10
2019-06-27T19:14:06.691Z,22.10
2019-06-27T19:16:35.668Z,22.00
2019-06-27T19:19:07.800Z,22.00
2019-06-27T19:22:39.722Z,22.00
2019-06-27T19:25:13.907Z,21.90
2019-06-27T19:27:43.055Z,21.80
2019-06-27T19:30:12.195Z,21.80
2019-06-27T19:32:41.193Z,21.80
2019-06-27T19:35:10.223Z,21.60
2019-06-27T19:37:41.681Z,21.50
2019-06-27T19:40:16.078Z,21.40
2019-06-27T19:42:55.777Z,21.40
2019-06-27T19:45:29.260Z,21.40
2019-06-27T19:47:58.233Z,21.40
2019-06-27T19:50:27.654Z,21.40
2019-06-27T19:52:56.718Z,21.40
2019-06-27T19:55:25.701Z,21.40
2019-06-27T19:57:56.304Z,21.40
2019-06-27T20:00:25.499Z,21.30
2019-06-27T20:02:55.220Z,21.30
2019-06-27T20:05:29.654Z,21.10
2019-06-27T20:08:17.841Z,21.00
2019-06-27T20:10:31.844Z,20.90
2019-06-27T20:13:00.889Z,20.80
2019-06-27T20:15:34.655Z,20.80
2019-06-27T20:18:06.429Z,20.80
2019-06-27T20:20:36.810Z,20.70
2019-06-27T20:23:05.963Z,20.70
2019-06-27T20:25:34.980Z,20.50
2019-06-27T20:28:04.060Z,20.60
2019-06-27T20:30:35.019Z,20.50
2019-06-27T20:33:04.077Z,20.50
2019-06-27T20:35:33.035Z,20.50
2019-06-27T20:38:07.871Z,20.40
2019-06-27T20:40:42.284Z,20.40
2019-06-27T20:43:11.233Z,20.40
2019-06-27T20:45:47.396Z,20.20
2019-06-27T20:48:22.301Z,20.20
2019-06-27T20:50:51.351Z,20.20
2019-06-27T20:53:20.444Z,20.10
2019-06-27T20:55:55.242Z,20.10
2019-06-27T20:58:31.562Z,20.00
2019-06-27T21:01:03.373Z,20.00
2019-06-27T21:03:36.875Z,19.90
2019-06-27T21:06:08.710Z,20.00
2019-06-27T21:08:50.666Z,19.90
2019-06-27T21:11:11.073Z,19.90
2019-06-27T21:13:41.837Z,19.70
2019-06-27T21:16:11.309Z,19.70
2019-06-27T21:18:41.936Z,19.60
2019-06-27T21:21:14.700Z,19.50
2019-06-27T21:23:43.868Z,19.50
2019-06-27T21:26:13.596Z,19.50
2019-06-27T21:28:42.640Z,19.50
2019-06-27T21:31:11.722Z,19.50
2019-06-27T21:33:40.751Z,19.50
2019-06-27T21:36:10.974Z,19.50
2019-06-27T21:38:39.933Z,19.50
2019-06-27T21:41:14.917Z,19.30
2019-06-27T21:43:44.000Z,19.40
2019-06-27T21:46:14.382Z,19.40
2019-06-27T21:48:48.172Z,19.30
2019-06-27T21:51:21.528Z,19.20
2019-06-27T21:53:56.056Z,19.20
2019-06-27T21:56:26.297Z,19.10
2019-06-27T21:58:55.238Z,19.00
2019-06-27T22:01:27.716Z,18.90
2019-06-27T22:04:00.367Z,18.90
2019-06-27T22:06:36.536Z,18.90
2019-06-27T22:09:05.861Z,18.80
2019-06-27T22:11:42.870Z,18.80
2019-06-27T22:14:17.252Z,18.70
2019-06-27T22:16:52.924Z,18.70
2019-06-27T22:19:24.808Z,18.60
2019-06-27T22:21:53.857Z,18.70
2019-06-27T22:24:22.886Z,18.60
2019-06-27T22:26:51.991Z,18.50
2019-06-27T22:29:21.632Z,18.40
2019-06-27T22:31:50.650Z,18.50
2019-06-27T22:34:19.742Z,18.30
2019-06-27T22:36:48.713Z,18.30
2019-06-27T22:39:23.130Z,18.20
2019-06-27T22:41:57.798Z,18.30
2019-06-27T22:44:32.208Z,18.20
2019-06-27T22:47:09.059Z,18.20
2019-06-27T22:49:37.334Z,18.00
2019-06-27T22:52:13.593Z,18.00
2019-06-27T22:54:43.887Z,18.00
2019-06-27T22:57:14.505Z,18.00
2019-06-27T22:59:44.983Z,18.00
2019-06-27T23:02:14.276Z,18.00
2019-06-27T23:04:43.839Z,17.90
2019-06-27T23:07:14.057Z,17.80
2019-06-27T23:09:55.952Z,17.80
2019-06-27T23:12:14.156Z,17.80
2019-06-27T23:14:44.456Z,17.80
2019-06-27T23:17:13.951Z,17.80
2019-06-27T23:19:42.939Z,17.70
2019-06-27T23:22:13.526Z,17.80
2019-06-27T23:24:53.442Z,17.80
2019-06-27T23:27:26.899Z,17.70
2019-06-27T23:33:02.665Z,17.70
2019-06-27T23:38:29.374Z,17.70
2019-06-27T23:41:16.088Z,17.70
2019-06-27T23:46:52.671Z,17.60
2019-06-27T23:49:26.383Z,17.60
2019-06-27T23:52:01.564Z,17.60
2019-06-27T23:57:28.805Z,17.40
